sensor_id;sensor_type;location;lat;lon;timestamp;temperature;humidity
16327;DHT22;34812;49.846;9.610;2023-04-03T00:00:02;1.40;99.90
16327;DHT22;34812;49.846;9.610;2023-04-03T00:01:07;1.40;99.90
16327;DHT22;34812;49.846;9.610;2023-04-03T00:02:09;1.40;99.90
16327;DHT22;34812;49.846;9.610;2023-04-03T00:03:10;1.40;99.90
16327;DHT22;34812;49.846;9.610;2023-04-03T00:04:11;1.40;99.90
16327;DHT22;34812;49.846;9.610;2023-04-03T00:05:12;1.40;99.90
16327;DHT22;34812;49.846;9.610;2023-04-03T00:06:14;1.30;99.90
16327;DHT22;34812;49.846;9.610;2023-04-03T00:07:15;1.30;99.90
16327;DHT22;34812;49.846;9.610;2023-04-03T00:08:18;1.30;99.90
16327;DHT22;34812;49.846;9.610;2023-04-03T00:09:19;1.30;99.90
16327;DHT22;34812;49.846;9.610;2023-04-03T00:10:21;1.30;99.90
16327;DHT22;34812;49.846;9.610;2023-04-03T00:11:22;1.30;99.90
16327;DHT22;34812;49.846;9.610;2023-04-03T00:12:24;1.30;99.90
16327;DHT22;34812;49.846;9.610;2023-04-03T00:13:25;1.30;99.90
16327;DHT22;34812;49.846;9.610;2023-04-03T00:14:27;1.40;99.90
16327;DHT22;34812;49.846;9.610;2023-04-03T00:15:28;1.40;99.90
16327;DHT22;34812;49.846;9.610;2023-04-03T00:16:29;1.40;99.90
16327;DHT22;34812;49.846;9.610;2023-04-03T00:17:30;1.40;99.90
16327;DHT22;34812;49.846;9.610;2023-04-03T00:18:32;1.40;99.90
16327;DHT22;34812;49.846;9.610;2023-04-03T00:19:33;1.40;99.90
16327;DHT22;34812;49.846;9.610;2023-04-03T00:20:35;1.40;99.90
16327;DHT22;34812;49.846;9.610;2023-04-03T00:21:36;1.40;99.90
16327;DHT22;34812;49.846;9.610;2023-04-03T00:22:37;1.40;99.90
16327;DHT22;34812;49.846;9.610;2023-04-03T00:23:40;1.40;99.90
16327;DHT22;34812;49.846;9.610;2023-04-03T00:24:41;1.40;99.90
16327;DHT22;34812;49.846;9.610;2023-04-03T00:25:43;1.40;99.90
16327;DHT22;34812;49.846;9.610;2023-04-03T00:26:45;1.40;99.90
16327;DHT22;34812;49.846;9.610;2023-04-03T00:27:46;1.40;99.90
16327;DHT22;34812;49.846;9.610;2023-04-03T00:28:47;1.40;99.90
16327;DHT22;34812;49.846;9.610;2023-04-03T00:29:48;1.40;99.90
16327;DHT22;34812;49.846;9.610;2023-04-03T00:30:51;1.50;99.90
16327;DHT22;34812;49.846;9.610;2023-04-03T00:31:52;1.50;99.90
16327;DHT22;34812;49.846;9.610;2023-04-03T00:32:54;1.50;99.90
16327;DHT22;34812;49.846;9.610;2023-04-03T00:33:55;1.50;99.90
16327;DHT22;34812;49.846;9.610;2023-04-03T00:34:57;1.50;99.90
16327;DHT22;34812;49.846;9.610;2023-04-03T00:35:58;1.50;99.90
16327;DHT22;34812;49.846;9.610;2023-04-03T00:37:00;1.50;99.90
16327;DHT22;34812;49.846;9.610;2023-04-03T00:38:00;1.50;99.90
16327;DHT22;34812;49.846;9.610;2023-04-03T00:39:04;1.50;99.90
16327;DHT22;34812;49.846;9.610;2023-04-03T00:40:06;1.50;99.90
16327;DHT22;34812;49.846;9.610;2023-04-03T00:41:08;1.50;99.90
16327;DHT22;34812;49.846;9.610;2023-04-03T00:42:09;1.50;99.90
16327;DHT22;34812;49.846;9.610;2023-04-03T00:43:13;1.50;99.90
16327;DHT22;34812;49.846;9.610;2023-04-03T00:44:22;1.50;99.90
16327;DHT22;34812;49.846;9.610;2023-04-03T00:45:46;1.50;99.90
16327;DHT22;34812;49.846;9.610;2023-04-03T00:46:48;1.60;99.90
16327;DHT22;34812;49.846;9.610;2023-04-03T00:47:49;1.70;99.90
16327;DHT22;34812;49.846;9.610;2023-04-03T00:48:51;1.70;99.90
16327;DHT22;34812;49.846;9.610;2023-04-03T00:49:53;1.70;99.90
16327;DHT22;34812;49.846;9.610;2023-04-03T00:50:54;1.70;99.90
16327;DHT22;34812;49.846;9.610;2023-04-03T00:51:57;1.70;99.90
16327;DHT22;34812;49.846;9.610;2023-04-03T00:52:58;1.70;99.90
16327;DHT22;34812;49.846;9.610;2023-04-03T00:54:04;1.70;99.90
16327;DHT22;34812;49.846;9.610;2023-04-03T00:55:09;1.70;99.90
16327;DHT22;34812;49.846;9.610;2023-04-03T00:56:13;1.70;99.90
16327;DHT22;34812;49.846;9.610;2023-04-03T00:57:17;1.70;99.90
16327;DHT22;34812;49.846;9.610;2023-04-03T00:58:20;1.70;99.90
16327;DHT22;34812;49.846;9.610;2023-04-03T00:59:25;1.80;99.90
16327;DHT22;34812;49.846;9.610;2023-04-03T01:00:27;1.70;99.90
16327;DHT22;34812;49.846;9.610;2023-04-03T01:01:30;1.70;99.90
16327;DHT22;34812;49.846;9.610;2023-04-03T01:02:31;1.80;99.90
16327;DHT22;34812;49.846;9.610;2023-04-03T01:03:33;1.80;99.90
16327;DHT22;34812;49.846;9.610;2023-04-03T01:04:38;1.70;99.90
16327;DHT22;34812;49.846;9.610;2023-04-03T01:05:40;1.70;99.90
16327;DHT22;34812;49.846;9.610;2023-04-03T01:06:42;1.80;99.90
16327;DHT22;34812;49.846;9.610;2023-04-03T01:07:43;1.70;99.90
16327;DHT22;34812;49.846;9.610;2023-04-03T01:08:48;1.80;99.90
16327;DHT22;34812;49.846;9.610;2023-04-03T01:09:56;1.80;99.90
16327;DHT22;34812;49.846;9.610;2023-04-03T01:10:57;1.80;99.90
16327;DHT22;34812;49.846;9.610;2023-04-03T01:12:13;1.80;99.90
16327;DHT22;34812;49.846;9.610;2023-04-03T01:13:20;1.90;99.90
16327;DHT22;34812;49.846;9.610;2023-04-03T01:14:22;1.90;99.90
16327;DHT22;34812;49.846;9.610;2023-04-03T01:15:24;1.90;99.90
16327;DHT22;34812;49.846;9.610;2023-04-03T01:16:26;1.90;99.90
16327;DHT22;34812;49.846;9.610;2023-04-03T01:17:34;1.90;99.90
16327;DHT22;34812;49.846;9.610;2023-04-03T01:18:38;2.00;99.90
16327;DHT22;34812;49.846;9.610;2023-04-03T01:19:42;2.00;99.90
16327;DHT22;34812;49.846;9.610;2023-04-03T01:22:16;2.00;99.90
16327;DHT22;34812;49.846;9.610;2023-04-03T01:23:30;2.00;99.90
16327;DHT22;34812;49.846;9.610;2023-04-03T01:24:35;2.00;99.90
16327;DHT22;34812;49.846;9.610;2023-04-03T01:25:43;2.10;99.90
16327;DHT22;34812;49.846;9.610;2023-04-03T01:26:45;2.10;99.90
16327;DHT22;34812;49.846;9.610;2023-04-03T01:27:47;2.10;99.90
16327;DHT22;34812;49.846;9.610;2023-04-03T01:28:47;2.10;99.90
16327;DHT22;34812;49.846;9.610;2023-04-03T01:29:49;2.10;99.90
16327;DHT22;34812;49.846;9.610;2023-04-03T01:30:55;2.10;99.90
16327;DHT22;34812;49.846;9.610;2023-04-03T01:32:02;2.10;99.90
16327;DHT22;34812;49.846;9.610;2023-04-03T01:33:04;2.10;99.90
16327;DHT22;34812;49.846;9.610;2023-04-03T01:34:06;2.10;99.90
16327;DHT22;34812;49.846;9.610;2023-04-03T01:35:08;2.10;99.90
16327;DHT22;34812;49.846;9.610;2023-04-03T01:36:14;2.10;99.90
16327;DHT22;34812;49.846;9.610;2023-04-03T01:37:16;2.10;99.90
16327;DHT22;34812;49.846;9.610;2023-04-03T01:38:18;2.10;99.90
16327;DHT22;34812;49.846;9.610;2023-04-03T01:39:19;2.10;99.90
16327;DHT22;34812;49.846;9.610;2023-04-03T01:40:21;2.20;99.90
16327;DHT22;34812;49.846;9.610;2023-04-03T01:41:22;2.20;99.90
16327;DHT22;34812;49.846;9.610;2023-04-03T01:42:26;2.20;99.90
16327;DHT22;34812;49.846;9.610;2023-04-03T01:43:27;2.20;99.90
16327;DHT22;34812;49.846;9.610;2023-04-03T01:44:29;2.20;99.90
16327;DHT22;34812;49.846;9.610;2023-04-03T01:45:30;2.20;99.90
16327;DHT22;34812;49.846;9.610;2023-04-03T01:46:32;2.20;99.90
16327;DHT22;34812;49.846;9.610;2023-04-03T01:47:34;2.20;99.90
16327;DHT22;34812;49.846;9.610;2023-04-03T01:48:36;2.20;99.90
16327;DHT22;34812;49.846;9.610;2023-04-03T01:49:37;2.20;99.90
16327;DHT22;34812;49.846;9.610;2023-04-03T01:50:39;2.20;99.90
16327;DHT22;34812;49.846;9.610;2023-04-03T01:51:40;2.20;99.90
16327;DHT22;34812;49.846;9.610;2023-04-03T01:52:42;2.20;99.90
16327;DHT22;34812;49.846;9.610;2023-04-03T01:53:43;2.20;99.90
16327;DHT22;34812;49.846;9.610;2023-04-03T01:54:45;2.20;99.90
16327;DHT22;34812;49.846;9.610;2023-04-03T01:55:46;2.20;99.90
16327;DHT22;34812;49.846;9.610;2023-04-03T01:56:48;2.20;99.90
16327;DHT22;34812;49.846;9.610;2023-04-03T01:57:48;2.20;99.90
16327;DHT22;34812;49.846;9.610;2023-04-03T01:58:50;2.30;99.90
16327;DHT22;34812;49.846;9.610;2023-04-03T01:59:51;2.30;99.90
16327;DHT22;34812;49.846;9.610;2023-04-03T02:00:53;2.30;99.90
16327;DHT22;34812;49.846;9.610;2023-04-03T02:01:54;2.30;99.90
16327;DHT22;34812;49.846;9.610;2023-04-03T02:02:58;2.30;99.90
16327;DHT22;34812;49.846;9.610;2023-04-03T02:04:00;2.30;99.90
16327;DHT22;34812;49.846;9.610;2023-04-03T02:05:02;2.30;99.90
16327;DHT22;34812;49.846;9.610;2023-04-03T02:06:03;2.30;99.90
16327;DHT22;34812;49.846;9.610;2023-04-03T02:07:05;2.30;99.90
16327;DHT22;34812;49.846;9.610;2023-04-03T02:08:06;2.30;99.90
16327;DHT22;34812;49.846;9.610;2023-04-03T02:09:09;2.30;99.90
16327;DHT22;34812;49.846;9.610;2023-04-03T02:10:10;2.30;99.90
16327;DHT22;34812;49.846;9.610;2023-04-03T02:11:11;2.30;99.90
16327;DHT22;34812;49.846;9.610;2023-04-03T02:12:12;2.40;99.90
16327;DHT22;34812;49.846;9.610;2023-04-03T02:13:14;2.40;99.90
16327;DHT22;34812;49.846;9.610;2023-04-03T02:14:15;2.40;99.90
16327;DHT22;34812;49.846;9.610;2023-04-03T02:15:17;2.40;99.90
16327;DHT22;34812;49.846;9.610;2023-04-03T02:16:18;2.50;99.90
16327;DHT22;34812;49.846;9.610;2023-04-03T02:17:20;2.50;99.90
16327;DHT22;34812;49.846;9.610;2023-04-03T02:18:23;2.60;99.90
16327;DHT22;34812;49.846;9.610;2023-04-03T02:19:24;2.60;99.90
16327;DHT22;34812;49.846;9.610;2023-04-03T02:20:25;2.60;99.90
16327;DHT22;34812;49.846;9.610;2023-04-03T02:21:27;2.60;99.90
16327;DHT22;34812;49.846;9.610;2023-04-03T02:22:28;2.60;99.90
16327;DHT22;34812;49.846;9.610;2023-04-03T02:23:30;2.60;99.90
16327;DHT22;34812;49.846;9.610;2023-04-03T02:24:32;2.60;99.90
16327;DHT22;34812;49.846;9.610;2023-04-03T02:25:34;2.60;99.90
16327;DHT22;34812;49.846;9.610;2023-04-03T02:26:34;2.60;99.90
16327;DHT22;34812;49.846;9.610;2023-04-03T02:27:37;2.60;99.90
16327;DHT22;34812;49.846;9.610;2023-04-03T02:28:38;2.50;99.90
16327;DHT22;34812;49.846;9.610;2023-04-03T02:29:41;2.60;99.90
16327;DHT22;34812;49.846;9.610;2023-04-03T02:30:42;2.50;99.90
16327;DHT22;34812;49.846;9.610;2023-04-03T02:31:45;2.50;99.90
16327;DHT22;34812;49.846;9.610;2023-04-03T02:32:45;2.60;99.90
16327;DHT22;34812;49.846;9.610;2023-04-03T02:33:49;2.50;99.90
16327;DHT22;34812;49.846;9.610;2023-04-03T02:34:51;2.50;99.90
16327;DHT22;34812;49.846;9.610;2023-04-03T02:35:53;2.50;99.90
16327;DHT22;34812;49.846;9.610;2023-04-03T02:36:56;2.50;99.90
16327;DHT22;34812;49.846;9.610;2023-04-03T02:37:58;2.50;99.90
16327;DHT22;34812;49.846;9.610;2023-04-03T02:38:59;2.50;99.90
16327;DHT22;34812;49.846;9.610;2023-04-03T02:40:01;2.60;99.90
16327;DHT22;34812;49.846;9.610;2023-04-03T02:41:03;2.60;99.90
16327;DHT22;34812;49.846;9.610;2023-04-03T02:42:06;2.60;99.90
16327;DHT22;34812;49.846;9.610;2023-04-03T02:43:08;2.60;99.90
16327;DHT22;34812;49.846;9.610;2023-04-03T02:44:11;2.60;99.90
16327;DHT22;34812;49.846;9.610;2023-04-03T02:45:12;2.60;99.90
16327;DHT22;34812;49.846;9.610;2023-04-03T02:46:14;2.60;99.90
16327;DHT22;34812;49.846;9.610;2023-04-03T02:47:16;2.60;99.90
16327;DHT22;34812;49.846;9.610;2023-04-03T02:48:18;2.60;99.90
16327;DHT22;34812;49.846;9.610;2023-04-03T02:49:20;2.70;99.90
16327;DHT22;34812;49.846;9.610;2023-04-03T02:50:22;2.70;99.90
16327;DHT22;34812;49.846;9.610;2023-04-03T02:51:23;2.70;99.90
16327;DHT22;34812;49.846;9.610;2023-04-03T02:52:26;2.70;99.90
16327;DHT22;34812;49.846;9.610;2023-04-03T02:53:29;2.70;99.90
16327;DHT22;34812;49.846;9.610;2023-04-03T02:54:32;2.70;99.90
16327;DHT22;34812;49.846;9.610;2023-04-03T02:55:37;2.80;99.90
16327;DHT22;34812;49.846;9.610;2023-04-03T02:56:39;2.80;99.90
16327;DHT22;34812;49.846;9.610;2023-04-03T02:57:40;2.80;99.90
16327;DHT22;34812;49.846;9.610;2023-04-03T02:58:41;2.80;99.90
16327;DHT22;34812;49.846;9.610;2023-04-03T02:59:43;2.80;99.90
16327;DHT22;34812;49.846;9.610;2023-04-03T03:00:46;2.80;99.90
16327;DHT22;34812;49.846;9.610;2023-04-03T03:01:46;2.80;99.90
16327;DHT22;34812;49.846;9.610;2023-04-03T03:02:48;2.80;99.90
16327;DHT22;34812;49.846;9.610;2023-04-03T03:03:50;2.80;99.90
16327;DHT22;34812;49.846;9.610;2023-04-03T03:04:53;2.80;99.90
16327;DHT22;34812;49.846;9.610;2023-04-03T03:06:02;2.80;99.90
16327;DHT22;34812;49.846;9.610;2023-04-03T03:07:04;2.80;99.90
16327;DHT22;34812;49.846;9.610;2023-04-03T03:08:06;2.80;99.90
16327;DHT22;34812;49.846;9.610;2023-04-03T03:09:07;2.80;99.90
16327;DHT22;34812;49.846;9.610;2023-04-03T03:10:09;2.80;99.90
16327;DHT22;34812;49.846;9.610;2023-04-03T03:11:11;2.80;99.90
16327;DHT22;34812;49.846;9.610;2023-04-03T03:12:11;2.80;99.90
16327;DHT22;34812;49.846;9.610;2023-04-03T03:13:13;2.80;99.90
16327;DHT22;34812;49.846;9.610;2023-04-03T03:14:14;2.80;99.90
16327;DHT22;34812;49.846;9.610;2023-04-03T03:15:16;2.80;99.90
16327;DHT22;34812;49.846;9.610;2023-04-03T03:16:17;2.80;99.90
16327;DHT22;34812;49.846;9.610;2023-04-03T03:17:19;2.80;99.90
16327;DHT22;34812;49.846;9.610;2023-04-03T03:18:21;2.70;99.90
16327;DHT22;34812;49.846;9.610;2023-04-03T03:19:23;2.70;99.90
16327;DHT22;34812;49.846;9.610;2023-04-03T03:20:25;2.70;99.90
16327;DHT22;34812;49.846;9.610;2023-04-03T03:21:27;2.70;99.90
16327;DHT22;34812;49.846;9.610;2023-04-03T03:22:29;2.70;99.90
16327;DHT22;34812;49.846;9.610;2023-04-03T03:23:31;2.70;99.90
16327;DHT22;34812;49.846;9.610;2023-04-03T03:24:32;2.70;99.90
16327;DHT22;34812;49.846;9.610;2023-04-03T03:25:38;2.70;99.90
16327;DHT22;34812;49.846;9.610;2023-04-03T03:26:38;2.70;99.90
16327;DHT22;34812;49.846;9.610;2023-04-03T03:27:40;2.70;99.90
16327;DHT22;34812;49.846;9.610;2023-04-03T03:28:41;2.70;99.90
16327;DHT22;34812;49.846;9.610;2023-04-03T03:29:45;2.70;99.90
16327;DHT22;34812;49.846;9.610;2023-04-03T03:30:47;2.70;99.90
16327;DHT22;34812;49.846;9.610;2023-04-03T03:31:49;2.70;99.90
16327;DHT22;34812;49.846;9.610;2023-04-03T03:32:51;2.80;99.90
16327;DHT22;34812;49.846;9.610;2023-04-03T03:33:51;2.80;99.90
16327;DHT22;34812;49.846;9.610;2023-04-03T03:34:53;2.80;99.90
16327;DHT22;34812;49.846;9.610;2023-04-03T03:35:56;2.80;99.90
16327;DHT22;34812;49.846;9.610;2023-04-03T03:36:58;2.90;99.90
16327;DHT22;34812;49.846;9.610;2023-04-03T03:38:00;2.90;99.90
16327;DHT22;34812;49.846;9.610;2023-04-03T03:39:01;2.90;99.90
16327;DHT22;34812;49.846;9.610;2023-04-03T03:40:04;2.90;99.90
16327;DHT22;34812;49.846;9.610;2023-04-03T03:41:06;3.00;99.90
16327;DHT22;34812;49.846;9.610;2023-04-03T03:42:09;3.00;99.90
16327;DHT22;34812;49.846;9.610;2023-04-03T03:43:10;3.00;99.90
16327;DHT22;34812;49.846;9.610;2023-04-03T03:44:12;3.10;99.90
16327;DHT22;34812;49.846;9.610;2023-04-03T03:45:14;3.10;99.90
16327;DHT22;34812;49.846;9.610;2023-04-03T03:46:16;3.10;99.90
16327;DHT22;34812;49.846;9.610;2023-04-03T03:47:18;3.10;99.90
16327;DHT22;34812;49.846;9.610;2023-04-03T03:48:19;3.10;99.90
16327;DHT22;34812;49.846;9.610;2023-04-03T03:49:21;3.20;99.90
16327;DHT22;34812;49.846;9.610;2023-04-03T03:50:22;3.20;99.90
16327;DHT22;34812;49.846;9.610;2023-04-03T03:51:26;3.30;99.90
16327;DHT22;34812;49.846;9.610;2023-04-03T03:52:28;3.30;99.90
16327;DHT22;34812;49.846;9.610;2023-04-03T03:53:30;3.30;99.90
16327;DHT22;34812;49.846;9.610;2023-04-03T03:54:37;3.30;99.90
16327;DHT22;34812;49.846;9.610;2023-04-03T03:55:38;3.40;99.90
16327;DHT22;34812;49.846;9.610;2023-04-03T03:56:40;3.40;99.90
16327;DHT22;34812;49.846;9.610;2023-04-03T03:57:41;3.40;99.90
16327;DHT22;34812;49.846;9.610;2023-04-03T03:58:44;3.40;99.90
16327;DHT22;34812;49.846;9.610;2023-04-03T03:59:44;3.50;99.90
16327;DHT22;34812;49.846;9.610;2023-04-03T04:00:48;3.50;99.90
16327;DHT22;34812;49.846;9.610;2023-04-03T04:01:48;3.50;99.90
16327;DHT22;34812;49.846;9.610;2023-04-03T04:02:51;3.50;99.90
16327;DHT22;34812;49.846;9.610;2023-04-03T04:03:54;3.60;99.90
16327;DHT22;34812;49.846;9.610;2023-04-03T04:05:00;3.60;99.90
16327;DHT22;34812;49.846;9.610;2023-04-03T04:06:01;3.60;99.90
16327;DHT22;34812;49.846;9.610;2023-04-03T04:07:04;3.60;99.90
16327;DHT22;34812;49.846;9.610;2023-04-03T04:08:06;3.70;99.90
16327;DHT22;34812;49.846;9.610;2023-04-03T04:09:09;3.70;99.90
16327;DHT22;34812;49.846;9.610;2023-04-03T04:10:10;3.70;99.90
16327;DHT22;34812;49.846;9.610;2023-04-03T04:11:12;3.70;99.90
16327;DHT22;34812;49.846;9.610;2023-04-03T04:12:14;3.70;99.90
16327;DHT22;34812;49.846;9.610;2023-04-03T04:13:16;3.80;99.90
16327;DHT22;34812;49.846;9.610;2023-04-03T04:14:17;3.80;99.90
16327;DHT22;34812;49.846;9.610;2023-04-03T04:15:21;3.80;99.90
16327;DHT22;34812;49.846;9.610;2023-04-03T04:16:22;3.80;99.90
16327;DHT22;34812;49.846;9.610;2023-04-03T04:17:24;3.80;99.90
16327;DHT22;34812;49.846;9.610;2023-04-03T04:18:26;3.80;99.90
16327;DHT22;34812;49.846;9.610;2023-04-03T04:19:28;3.80;99.90
16327;DHT22;34812;49.846;9.610;2023-04-03T04:20:29;3.80;99.90
16327;DHT22;34812;49.846;9.610;2023-04-03T04:21:31;3.80;99.90
16327;DHT22;34812;49.846;9.610;2023-04-03T04:22:33;3.80;99.90
16327;DHT22;34812;49.846;9.610;2023-04-03T04:23:35;3.80;99.90
16327;DHT22;34812;49.846;9.610;2023-04-03T04:24:37;3.80;99.90
16327;DHT22;34812;49.846;9.610;2023-04-03T04:25:38;3.80;99.90
16327;DHT22;34812;49.846;9.610;2023-04-03T04:26:40;3.80;99.90
16327;DHT22;34812;49.846;9.610;2023-04-03T04:27:44;3.90;99.90
16327;DHT22;34812;49.846;9.610;2023-04-03T04:28:48;3.90;99.90
16327;DHT22;34812;49.846;9.610;2023-04-03T04:29:51;3.90;99.90
16327;DHT22;34812;49.846;9.610;2023-04-03T04:30:54;3.90;99.90
16327;DHT22;34812;49.846;9.610;2023-04-03T04:31:56;3.90;99.90
16327;DHT22;34812;49.846;9.610;2023-04-03T04:32:58;3.90;99.90
16327;DHT22;34812;49.846;9.610;2023-04-03T04:34:00;3.90;99.90
16327;DHT22;34812;49.846;9.610;2023-04-03T04:35:02;3.90;99.90
16327;DHT22;34812;49.846;9.610;2023-04-03T04:36:05;3.90;99.90
16327;DHT22;34812;49.846;9.610;2023-04-03T04:37:07;3.90;99.90
16327;DHT22;34812;49.846;9.610;2023-04-03T04:38:10;3.90;99.90
16327;DHT22;34812;49.846;9.610;2023-04-03T04:39:12;3.90;99.90
16327;DHT22;34812;49.846;9.610;2023-04-03T04:40:13;3.90;99.90
16327;DHT22;34812;49.846;9.610;2023-04-03T04:41:15;3.90;99.90
16327;DHT22;34812;49.846;9.610;2023-04-03T04:42:17;3.90;99.90
16327;DHT22;34812;49.846;9.610;2023-04-03T04:43:21;3.90;99.90
16327;DHT22;34812;49.846;9.610;2023-04-03T04:44:24;3.90;99.90
16327;DHT22;34812;49.846;9.610;2023-04-03T04:45:26;3.90;99.90
16327;DHT22;34812;49.846;9.610;2023-04-03T04:46:27;3.90;99.90
16327;DHT22;34812;49.846;9.610;2023-04-03T04:47:32;3.90;99.90
16327;DHT22;34812;49.846;9.610;2023-04-03T04:48:33;3.80;99.90
16327;DHT22;34812;49.846;9.610;2023-04-03T04:49:36;3.80;99.90
16327;DHT22;34812;49.846;9.610;2023-04-03T04:50:37;4.00;99.90
16327;DHT22;34812;49.846;9.610;2023-04-03T04:51:39;3.80;99.90
16327;DHT22;34812;49.846;9.610;2023-04-03T04:52:40;3.80;99.90
16327;DHT22;34812;49.846;9.610;2023-04-03T04:53:44;3.80;99.90
16327;DHT22;34812;49.846;9.610;2023-04-03T04:54:48;3.80;99.90
16327;DHT22;34812;49.846;9.610;2023-04-03T04:55:49;3.70;99.90
16327;DHT22;34812;49.846;9.610;2023-04-03T04:56:50;3.70;99.90
16327;DHT22;34812;49.846;9.610;2023-04-03T04:57:52;3.60;99.90
16327;DHT22;34812;49.846;9.610;2023-04-03T04:58:54;3.60;99.90
16327;DHT22;34812;49.846;9.610;2023-04-03T04:59:57;3.60;99.90
16327;DHT22;34812;49.846;9.610;2023-04-03T05:00:59;3.60;99.90
16327;DHT22;34812;49.846;9.610;2023-04-03T05:02:00;3.50;99.90
16327;DHT22;34812;49.846;9.610;2023-04-03T05:03:02;3.50;99.90
16327;DHT22;34812;49.846;9.610;2023-04-03T05:04:03;3.40;99.90
16327;DHT22;34812;49.846;9.610;2023-04-03T05:05:06;3.40;99.90
16327;DHT22;34812;49.846;9.610;2023-04-03T05:06:08;3.30;99.90
16327;DHT22;34812;49.846;9.610;2023-04-03T05:07:11;3.30;99.90
16327;DHT22;34812;49.846;9.610;2023-04-03T05:08:12;3.30;99.90
16327;DHT22;34812;49.846;9.610;2023-04-03T05:09:17;3.20;99.90
16327;DHT22;34812;49.846;9.610;2023-04-03T05:10:21;3.20;99.90
16327;DHT22;34812;49.846;9.610;2023-04-03T05:11:22;3.20;99.90
16327;DHT22;34812;49.846;9.610;2023-04-03T05:12:25;3.20;99.90
16327;DHT22;34812;49.846;9.610;2023-04-03T05:13:32;3.10;99.90
16327;DHT22;34812;49.846;9.610;2023-04-03T05:14:33;3.10;99.90
16327;DHT22;34812;49.846;9.610;2023-04-03T05:15:38;3.10;99.90
16327;DHT22;34812;49.846;9.610;2023-04-03T05:16:39;3.10;99.90
16327;DHT22;34812;49.846;9.610;2023-04-03T05:17:41;3.10;99.90
16327;DHT22;34812;49.846;9.610;2023-04-03T05:18:45;3.10;99.90
16327;DHT22;34812;49.846;9.610;2023-04-03T05:19:52;3.10;99.90
16327;DHT22;34812;49.846;9.610;2023-04-03T05:20:55;3.00;99.90
16327;DHT22;34812;49.846;9.610;2023-04-03T05:21:59;3.00;99.90
16327;DHT22;34812;49.846;9.610;2023-04-03T05:23:00;3.00;99.90
16327;DHT22;34812;49.846;9.610;2023-04-03T05:24:03;3.10;99.90
16327;DHT22;34812;49.846;9.610;2023-04-03T05:25:08;3.10;99.90
16327;DHT22;34812;49.846;9.610;2023-04-03T05:26:11;3.10;99.90
16327;DHT22;34812;49.846;9.610;2023-04-03T05:27:13;3.10;99.90
16327;DHT22;34812;49.846;9.610;2023-04-03T05:28:18;3.10;99.90
16327;DHT22;34812;49.846;9.610;2023-04-03T05:29:20;3.10;99.90
16327;DHT22;34812;49.846;9.610;2023-04-03T05:30:21;3.10;99.90
16327;DHT22;34812;49.846;9.610;2023-04-03T05:31:23;3.10;99.90
16327;DHT22;34812;49.846;9.610;2023-04-03T05:32:25;3.10;99.90
16327;DHT22;34812;49.846;9.610;2023-04-03T05:33:37;3.00;99.90
16327;DHT22;34812;49.846;9.610;2023-04-03T05:34:41;3.00;99.90
16327;DHT22;34812;49.846;9.610;2023-04-03T05:35:43;3.00;99.90
16327;DHT22;34812;49.846;9.610;2023-04-03T05:36:47;3.00;99.90
16327;DHT22;34812;49.846;9.610;2023-04-03T05:37:49;2.90;99.90
16327;DHT22;34812;49.846;9.610;2023-04-03T05:38:51;2.90;99.90
16327;DHT22;34812;49.846;9.610;2023-04-03T05:39:53;2.90;99.90
16327;DHT22;34812;49.846;9.610;2023-04-03T05:40:55;2.90;99.90
16327;DHT22;34812;49.846;9.610;2023-04-03T05:41:57;2.90;99.90
16327;DHT22;34812;49.846;9.610;2023-04-03T05:42:59;2.90;99.90
16327;DHT22;34812;49.846;9.610;2023-04-03T05:44:03;2.90;99.90
16327;DHT22;34812;49.846;9.610;2023-04-03T05:45:06;2.80;99.90
16327;DHT22;34812;49.846;9.610;2023-04-03T05:46:10;2.80;99.90
16327;DHT22;34812;49.846;9.610;2023-04-03T05:47:12;2.80;99.90
16327;DHT22;34812;49.846;9.610;2023-04-03T05:48:13;2.80;99.90
16327;DHT22;34812;49.846;9.610;2023-04-03T05:49:14;2.80;99.90
16327;DHT22;34812;49.846;9.610;2023-04-03T05:50:16;2.80;99.90
16327;DHT22;34812;49.846;9.610;2023-04-03T05:51:20;2.80;99.90
16327;DHT22;34812;49.846;9.610;2023-04-03T05:52:27;2.70;99.90
16327;DHT22;34812;49.846;9.610;2023-04-03T05:53:29;2.70;99.90
16327;DHT22;34812;49.846;9.610;2023-04-03T05:54:36;2.70;99.90
16327;DHT22;34812;49.846;9.610;2023-04-03T05:55:52;2.70;99.90
16327;DHT22;34812;49.846;9.610;2023-04-03T05:56:56;2.70;99.90
16327;DHT22;34812;49.846;9.610;2023-04-03T05:57:58;2.70;99.90
16327;DHT22;34812;49.846;9.610;2023-04-03T05:58:59;2.80;99.90
16327;DHT22;34812;49.846;9.610;2023-04-03T06:00:01;2.80;99.90
16327;DHT22;34812;49.846;9.610;2023-04-03T06:01:04;2.80;99.90
16327;DHT22;34812;49.846;9.610;2023-04-03T06:02:06;2.80;99.90
16327;DHT22;34812;49.846;9.610;2023-04-03T06:03:10;2.80;99.90
16327;DHT22;34812;49.846;9.610;2023-04-03T06:04:11;2.80;99.90
16327;DHT22;34812;49.846;9.610;2023-04-03T06:05:13;2.80;99.90
16327;DHT22;34812;49.846;9.610;2023-04-03T06:06:15;2.80;99.90
16327;DHT22;34812;49.846;9.610;2023-04-03T06:07:18;2.80;99.90
16327;DHT22;34812;49.846;9.610;2023-04-03T06:08:23;2.80;99.90
16327;DHT22;34812;49.846;9.610;2023-04-03T06:09:26;2.80;99.90
16327;DHT22;34812;49.846;9.610;2023-04-03T06:10:29;2.80;99.90
16327;DHT22;34812;49.846;9.610;2023-04-03T06:11:31;2.80;99.90
16327;DHT22;34812;49.846;9.610;2023-04-03T06:12:33;2.80;99.90
16327;DHT22;34812;49.846;9.610;2023-04-03T06:13:35;2.80;99.90
16327;DHT22;34812;49.846;9.610;2023-04-03T06:14:36;2.80;99.90
16327;DHT22;34812;49.846;9.610;2023-04-03T06:15:37;2.90;99.90
16327;DHT22;34812;49.846;9.610;2023-04-03T06:16:39;2.90;99.90
16327;DHT22;34812;49.846;9.610;2023-04-03T06:17:41;2.90;99.90
16327;DHT22;34812;49.846;9.610;2023-04-03T06:18:42;2.90;99.90
16327;DHT22;34812;49.846;9.610;2023-04-03T06:19:45;2.90;99.90
16327;DHT22;34812;49.846;9.610;2023-04-03T06:20:46;2.90;99.90
16327;DHT22;34812;49.846;9.610;2023-04-03T06:21:47;2.90;99.90
16327;DHT22;34812;49.846;9.610;2023-04-03T06:22:48;2.90;99.90
16327;DHT22;34812;49.846;9.610;2023-04-03T06:23:51;3.00;99.90
16327;DHT22;34812;49.846;9.610;2023-04-03T06:24:52;3.00;99.90
16327;DHT22;34812;49.846;9.610;2023-04-03T06:25:53;3.00;99.90
16327;DHT22;34812;49.846;9.610;2023-04-03T06:26:55;3.00;99.90
16327;DHT22;34812;49.846;9.610;2023-04-03T06:27:57;3.00;99.90
16327;DHT22;34812;49.846;9.610;2023-04-03T06:28:59;3.00;99.90
16327;DHT22;34812;49.846;9.610;2023-04-03T06:30:00;3.00;99.90
16327;DHT22;34812;49.846;9.610;2023-04-03T06:31:02;3.00;99.90
16327;DHT22;34812;49.846;9.610;2023-04-03T06:32:03;3.10;99.90
16327;DHT22;34812;49.846;9.610;2023-04-03T06:33:05;3.10;99.90
16327;DHT22;34812;49.846;9.610;2023-04-03T06:34:05;3.10;99.90
16327;DHT22;34812;49.846;9.610;2023-04-03T06:35:08;3.10;99.90
16327;DHT22;34812;49.846;9.610;2023-04-03T06:36:10;3.10;99.90
16327;DHT22;34812;49.846;9.610;2023-04-03T06:37:15;3.20;99.90
16327;DHT22;34812;49.846;9.610;2023-04-03T06:38:17;3.20;99.90
16327;DHT22;34812;49.846;9.610;2023-04-03T06:39:21;3.20;99.90
16327;DHT22;34812;49.846;9.610;2023-04-03T06:40:24;3.20;99.90
16327;DHT22;34812;49.846;9.610;2023-04-03T06:41:26;3.30;99.90